Time;durP1;ratioP1;P1;durP2;ratioP2;P2;SDS_P1;SDS_P2;PMS_P1;PMS_P2;Temp;Humidity;BMP_temperature;BMP_pressure;BME280_temperature;BME280_humidity;BME280_pressure;Samples;Min_cycle;Max_cycle;Signal;HPM_P1;HPM_P2
2023/09/10 00:01:24;;;;;;;49.20;33.83;;;;;;;;;;4989620;28;25154;-73
2023/09/10 00:03:50;;;;;;;40.88;35.03;;;;;;;;;;4997830;28;25086;-73
2023/09/10 00:06:16;;;;;;;38.75;31.40;;;;;;;;;;4982346;28;25053;-73
2023/09/10 00:08:42;;;;;;;42.58;34.47;;;;;;;;;;4997523;28;25045;-72
2023/09/10 00:11:08;;;;;;;37.20;31.45;;;;;;;;;;4988625;28;25063;-73
2023/09/10 00:13:34;;;;;;;46.35;34.28;;;;;;;;;;4994863;28;25102;-74
2023/09/10 00:16:00;;;;;;;40.22;33.72;;;;;;;;;;4990108;28;25059;-73
2023/09/10 00:18:26;;;;;;;44.97;35.70;;;;;;;;;;4989290;28;25043;-74
2023/09/10 00:20:52;;;;;;;49.75;36.67;;;;;;;;;;4990162;28;25601;-73
2023/09/10 00:23:18;;;;;;;47.30;36.42;;;;;;;;;;4989732;28;25058;-75
2023/09/10 00:25:44;;;;;;;52.35;38.13;;;;;;;;;;4990048;28;25116;-72
2023/09/10 00:28:10;;;;;;;55.25;39.22;;;;;;;;;;4989640;28;25056;-72
2023/09/10 00:30:36;;;;;;;54.25;40.05;;;;;;;;;;4993963;28;25125;-72
2023/09/10 00:33:02;;;;;;;53.58;40.50;;;;;;;;;;4986927;28;25075;-73
2023/09/10 00:35:29;;;;;;;55.15;42.65;;;;;;;;;;4988969;28;25085;-73
2023/09/10 00:37:54;;;;;;;49.70;39.33;;;;;;;;;;4987065;28;25101;-73
2023/09/10 00:40:20;;;;;;;50.38;40.22;;;;;;;;;;4992854;28;25083;-73
2023/09/10 00:42:46;;;;;;;54.22;41.13;;;;;;;;;;4994032;28;25060;-75
2023/09/10 00:45:12;;;;;;;52.30;43.88;;;;;;;;;;4984172;28;25098;-73
2023/09/10 00:47:41;;;;;;;56.90;41.83;;;;;;;;;;4981300;28;25060;-72
2023/09/10 00:50:11;;;;;;;55.35;44.10;;;;;;;;;;4982572;28;25065;-72
2023/09/10 00:52:41;;;;;;;57.50;44.55;;;;;;;;;;4980571;28;25092;-74
2023/09/10 00:55:07;;;;;;;54.13;45.92;;;;;;;;;;4985197;28;25054;-72
2023/09/10 00:57:33;;;;;;;61.15;47.15;;;;;;;;;;4985816;28;25047;-73
2023/09/10 00:59:59;;;;;;;59.72;44.63;;;;;;;;;;4987045;28;25100;-74
2023/09/10 01:02:26;;;;;;;58.85;48.53;;;;;;;;;;4987436;28;25152;-73
2023/09/10 01:04:52;;;;;;;60.08;47.22;;;;;;;;;;4992175;28;25113;-74
2023/09/10 01:07:18;;;;;;;61.55;47.03;;;;;;;;;;5005501;28;25072;-73
2023/09/10 01:09:44;;;;;;;62.38;48.22;;;;;;;;;;5000856;28;25108;-73
2023/09/10 01:12:12;;;;;;;65.90;49.42;;;;;;;;;;4999684;28;25164;-70
2023/09/10 01:14:46;;;;;;;58.70;48.63;;;;;;;;;;4993567;28;25073;-72
2023/09/10 01:17:30;;;;;;;61.50;48.75;;;;;;;;;;4988796;28;25102;-74
2023/09/10 01:20:20;;;;;;;62.45;49.95;;;;;;;;;;4989911;28;25062;-72
2023/09/10 01:22:59;;;;;;;61.55;50.78;;;;;;;;;;4971309;28;25077;-73
2023/09/10 01:25:26;;;;;;;65.68;51.20;;;;;;;;;;4976843;28;25089;-72
2023/09/10 01:27:51;;;;;;;63.65;49.60;;;;;;;;;;4992425;28;25063;-73
2023/09/10 01:30:17;;;;;;;64.38;51.42;;;;;;;;;;4985047;28;25181;-75
2023/09/10 01:32:48;;;;;;;66.28;52.75;;;;;;;;;;4986731;28;25059;-73
2023/09/10 01:35:21;;;;;;;65.60;51.45;;;;;;;;;;4984751;28;25059;-74
2023/09/10 01:38:22;;;;;;;68.68;51.38;;;;;;;;;;4991276;28;25072;-73
2023/09/10 01:41:03;;;;;;;60.95;48.97;;;;;;;;;;4974716;28;25055;-72
2023/09/10 01:43:30;;;;;;;65.72;49.03;;;;;;;;;;4988983;28;25110;-75
2023/09/10 01:45:56;;;;;;;57.13;47.33;;;;;;;;;;5001628;28;25067;-73
2023/09/10 01:48:22;;;;;;;56.97;47.95;;;;;;;;;;5025425;28;25082;-72
2023/09/10 01:50:48;;;;;;;63.17;47.45;;;;;;;;;;5017025;28;25059;-72
2023/09/10 01:53:16;;;;;;;62.17;46.53;;;;;;;;;;5015936;28;25161;-73
2023/09/10 01:55:42;;;;;;;57.13;46.80;;;;;;;;;;5011043;28;25058;-74
2023/09/10 01:58:08;;;;;;;57.05;47.60;;;;;;;;;;5027122;28;25054;-74
2023/09/10 02:00:34;;;;;;;53.00;44.05;;;;;;;;;;5024970;28;25051;-73
2023/09/10 02:03:00;;;;;;;60.28;44.60;;;;;;;;;;5017398;28;25135;-72
2023/09/10 02:05:26;;;;;;;50.33;42.65;;;;;;;;;;5013664;28;25083;-73
2023/09/10 02:07:52;;;;;;;55.53;45.60;;;;;;;;;;5008170;28;25095;-73
2023/09/10 02:10:18;;;;;;;54.42;43.53;;;;;;;;;;5019403;28;25065;-75
2023/09/10 02:12:44;;;;;;;52.83;41.55;;;;;;;;;;5008156;28;25064;-73
2023/09/10 02:15:11;;;;;;;55.65;42.58;;;;;;;;;;5012855;28;25084;-73
2023/09/10 02:17:37;;;;;;;55.35;41.92;;;;;;;;;;5013194;28;25129;-75
2023/09/10 02:20:09;;;;;;;53.60;41.63;;;;;;;;;;5006462;28;25105;-74
2023/09/10 02:22:35;;;;;;;54.67;40.97;;;;;;;;;;5004683;28;25055;-72
2023/09/10 02:25:03;;;;;;;50.47;39.28;;;;;;;;;;4994885;28;25089;-72
2023/09/10 02:27:29;;;;;;;50.92;41.30;;;;;;;;;;4991368;28;25165;-74
2023/09/10 02:29:54;;;;;;;52.60;38.97;;;;;;;;;;4991615;28;25157;-71
2023/09/10 02:32:20;;;;;;;48.80;39.67;;;;;;;;;;4989321;28;25055;-75
2023/09/10 02:34:46;;;;;;;54.30;42.42;;;;;;;;;;4996041;28;25082;-74
2023/09/10 02:37:14;;;;;;;49.50;40.88;;;;;;;;;;4982652;28;25068;-71
2023/09/10 02:39:40;;;;;;;58.60;40.72;;;;;;;;;;5000766;28;25062;-74
2023/09/10 02:42:06;;;;;;;53.13;41.72;;;;;;;;;;5016310;28;25055;-71
2023/09/10 02:44:32;;;;;;;52.38;40.40;;;;;;;;;;5006830;28;25057;-73
2023/09/10 02:46:58;;;;;;;54.10;41.40;;;;;;;;;;5016469;28;25085;-73
2023/09/10 02:49:24;;;;;;;53.95;41.78;;;;;;;;;;5011547;28;25054;-74
2023/09/10 02:51:50;;;;;;;58.17;42.53;;;;;;;;;;5010143;28;25077;-74
2023/09/10 02:54:16;;;;;;;50.05;40.70;;;;;;;;;;5010727;28;25063;-73
2023/09/10 02:56:43;;;;;;;53.92;42.25;;;;;;;;;;5023179;28;25100;-73
2023/09/10 02:59:17;;;;;;;54.67;42.30;;;;;;;;;;5007566;28;25053;-73
2023/09/10 03:01:43;;;;;;;51.60;41.58;;;;;;;;;;5008817;28;25080;-74
2023/09/10 03:04:09;;;;;;;50.38;40.53;;;;;;;;;;5002791;28;25085;-74
2023/09/10 03:06:35;;;;;;;52.55;42.78;;;;;;;;;;5019078;28;25097;-72
2023/09/10 03:09:01;;;;;;;50.75;41.15;;;;;;;;;;5007769;28;25072;-74
2023/09/10 03:11:27;;;;;;;53.03;41.53;;;;;;;;;;4995077;28;25131;-70
2023/09/10 03:13:53;;;;;;;53.80;41.42;;;;;;;;;;4999679;28;25132;-73
2023/09/10 03:16:19;;;;;;;54.60;42.03;;;;;;;;;;5001154;28;25116;-74
2023/09/10 03:18:45;;;;;;;50.40;40.47;;;;;;;;;;5002852;28;25083;-73
2023/09/10 03:21:11;;;;;;;55.50;42.50;;;;;;;;;;4992466;28;25077;-71
2023/09/10 03:23:37;;;;;;;57.88;42.05;;;;;;;;;;4988593;28;25122;-74
2023/09/10 03:26:03;;;;;;;57.38;41.50;;;;;;;;;;5000441;28;24771;-71
2023/09/10 03:28:29;;;;;;;54.47;41.40;;;;;;;;;;4998120;28;25149;-73
2023/09/10 03:30:58;;;;;;;51.63;41.63;;;;;;;;;;5002026;28;25101;-73
2023/09/10 03:33:24;;;;;;;58.08;42.65;;;;;;;;;;5001096;28;25105;-72
2023/09/10 03:35:51;;;;;;;59.78;44.00;;;;;;;;;;5002731;28;25123;-72
2023/09/10 03:38:17;;;;;;;60.10;42.92;;;;;;;;;;5001715;28;25065;-75
2023/09/10 03:40:43;;;;;;;55.92;42.70;;;;;;;;;;5000517;28;25095;-73
2023/09/10 03:43:09;;;;;;;60.35;42.53;;;;;;;;;;4993410;28;25041;-72
2023/09/10 03:45:35;;;;;;;56.55;43.63;;;;;;;;;;4995645;28;25056;-71
2023/09/10 03:48:01;;;;;;;54.42;43.88;;;;;;;;;;4999863;28;25055;-72
2023/09/10 03:50:27;;;;;;;58.40;45.15;;;;;;;;;;4996469;28;25072;-73
2023/09/10 03:52:53;;;;;;;61.10;44.08;;;;;;;;;;4996581;28;25074;-74
2023/09/10 03:55:19;;;;;;;55.83;42.55;;;;;;;;;;4998092;28;25055;-74
2023/09/10 03:57:45;;;;;;;51.80;40.75;;;;;;;;;;4993895;28;25034;-72
2023/09/10 04:00:11;;;;;;;51.85;41.58;;;;;;;;;;5000245;28;25063;-71
2023/09/10 04:02:37;;;;;;;54.13;43.70;;;;;;;;;;4993224;28;25135;-74
2023/09/10 04:05:04;;;;;;;54.58;43.60;;;;;;;;;;4994394;28;25065;-72
2023/09/10 04:07:30;;;;;;;55.05;43.67;;;;;;;;;;4988001;28;25068;-74
2023/09/10 04:09:56;;;;;;;59.25;45.35;;;;;;;;;;4991429;28;25060;-73
2023/09/10 04:12:22;;;;;;;56.03;44.78;;;;;;;;;;4987300;28;25052;-73
2023/09/10 04:14:48;;;;;;;60.33;45.60;;;;;;;;;;4986444;28;25071;-73
2023/09/10 04:17:17;;;;;;;58.65;44.00;;;;;;;;;;4986014;28;25082;-72
2023/09/10 04:19:43;;;;;;;54.38;42.97;;;;;;;;;;4999572;28;25064;-74
2023/09/10 04:22:09;;;;;;;56.92;44.83;;;;;;;;;;4987400;28;25056;-72
2023/09/10 04:24:36;;;;;;;62.78;45.80;;;;;;;;;;4983808;28;25080;-74
2023/09/10 04:27:02;;;;;;;60.10;46.42;;;;;;;;;;4989239;28;25071;-74
2023/09/10 04:29:28;;;;;;;62.70;46.63;;;;;;;;;;4993818;28;25076;-72
2023/09/10 04:31:54;;;;;;;62.80;47.33;;;;;;;;;;4991211;28;25064;-73
2023/09/10 04:34:20;;;;;;;63.15;49.35;;;;;;;;;;4988557;28;25111;-71
2023/09/10 04:36:46;;;;;;;57.70;46.75;;;;;;;;;;4985588;28;25064;-73
2023/09/10 04:39:12;;;;;;;66.18;48.58;;;;;;;;;;4993864;28;25079;-73
2023/09/10 04:41:38;;;;;;;66.85;50.50;;;;;;;;;;4988973;28;25075;-72
2023/09/10 04:44:04;;;;;;;64.85;49.55;;;;;;;;;;4991884;28;25082;-72
2023/09/10 04:46:30;;;;;;;67.03;49.80;;;;;;;;;;4992715;28;25082;-75
2023/09/10 04:49:00;;;;;;;59.72;48.55;;;;;;;;;;4992715;28;25056;-73
2023/09/10 04:51:26;;;;;;;67.07;48.38;;;;;;;;;;4984462;28;25046;-73
2023/09/10 04:53:52;;;;;;;66.05;50.50;;;;;;;;;;4988648;28;25156;-71
2023/09/10 04:56:18;;;;;;;64.32;51.83;;;;;;;;;;4982171;28;25079;-75
2023/09/10 04:58:44;;;;;;;71.00;52.22;;;;;;;;;;4993017;28;25078;-73
2023/09/10 05:01:10;;;;;;;70.53;52.50;;;;;;;;;;4990965;28;25132;-74
2023/09/10 05:03:36;;;;;;;70.43;51.88;;;;;;;;;;4990772;28;25089;-75
2023/09/10 05:06:05;;;;;;;65.25;49.35;;;;;;;;;;4990915;28;25082;-73
2023/09/10 05:08:31;;;;;;;76.65;53.50;;;;;;;;;;5002594;28;25069;-72
2023/09/10 05:10:57;;;;;;;73.47;52.90;;;;;;;;;;5005064;28;25088;-73
2023/09/10 05:13:23;;;;;;;72.45;53.70;;;;;;;;;;5010452;28;25164;-74
2023/09/10 05:15:49;;;;;;;71.43;54.47;;;;;;;;;;5000273;28;25109;-74
2023/09/10 05:18:15;;;;;;;77.88;53.65;;;;;;;;;;4994047;28;25049;-72
2023/09/10 05:20:41;;;;;;;71.03;52.17;;;;;;;;;;4983873;28;25075;-74
2023/09/10 05:23:07;;;;;;;68.85;54.65;;;;;;;;;;4985487;28;25060;-75
2023/09/10 05:25:37;;;;;;;69.32;52.75;;;;;;;;;;4986992;28;25086;-73
2023/09/10 05:28:04;;;;;;;78.63;54.97;;;;;;;;;;4994646;28;25052;-73
2023/09/10 05:30:30;;;;;;;75.78;55.45;;;;;;;;;;4991407;28;25055;-74
2023/09/10 05:32:59;;;;;;;68.70;53.72;;;;;;;;;;4993445;28;25083;-74
2023/09/10 05:35:25;;;;;;;66.55;53.28;;;;;;;;;;4947297;28;1102458;-72
2023/09/10 05:37:51;;;;;;;72.15;54.05;;;;;;;;;;4989855;28;25081;-74
2023/09/10 05:40:17;;;;;;;70.53;54.08;;;;;;;;;;4988389;28;25057;-76
2023/09/10 05:42:45;;;;;;;70.55;53.95;;;;;;;;;;4989640;28;25069;-73
2023/09/10 05:45:11;;;;;;;70.00;53.85;;;;;;;;;;4994347;28;25067;-72
2023/09/10 05:47:37;;;;;;;75.05;55.95;;;;;;;;;;4988550;28;25059;-74
2023/09/10 05:50:03;;;;;;;79.28;55.95;;;;;;;;;;4993248;28;25068;-73
2023/09/10 05:52:29;;;;;;;77.80;55.92;;;;;;;;;;4990839;28;25080;-73
2023/09/10 05:54:55;;;;;;;72.80;54.30;;;;;;;;;;4985355;28;25112;-73
2023/09/10 05:57:21;;;;;;;74.68;55.92;;;;;;;;;;4989126;28;25061;-73
2023/09/10 05:59:47;;;;;;;71.60;54.97;;;;;;;;;;4988403;28;25103;-73
2023/09/10 06:02:13;;;;;;;71.85;55.25;;;;;;;;;;4988477;28;25077;-71
2023/09/10 06:04:38;;;;;;;68.60;51.20;;;;;;;;;;4991380;28;25158;-70
2023/09/10 06:07:05;;;;;;;68.97;54.17;;;;;;;;;;4989693;28;25072;-73
2023/09/10 06:09:31;;;;;;;70.55;54.58;;;;;;;;;;4988006;28;25071;-72
2023/09/10 06:11:57;;;;;;;73.00;56.35;;;;;;;;;;4991026;28;25072;-75
2023/09/10 06:14:24;;;;;;;78.72;57.72;;;;;;;;;;4988976;28;25075;-73
2023/09/10 06:16:50;;;;;;;68.28;53.25;;;;;;;;;;5006341;28;25052;-75
2023/09/10 06:19:16;;;;;;;70.63;54.72;;;;;;;;;;5007388;28;25079;-75
2023/09/10 06:21:42;;;;;;;69.90;56.08;;;;;;;;;;5000491;28;25072;-76
2023/09/10 06:24:08;;;;;;;68.60;52.40;;;;;;;;;;4997312;28;25096;-72
2023/09/10 06:26:35;;;;;;;70.05;54.10;;;;;;;;;;4998474;28;25070;-73
2023/09/10 06:29:01;;;;;;;63.30;51.65;;;;;;;;;;5004618;28;25071;-74
2023/09/10 06:31:27;;;;;;;76.05;54.40;;;;;;;;;;4995410;28;25070;-72
2023/09/10 06:33:56;;;;;;;69.05;53.60;;;;;;;;;;5002311;28;25135;-72
2023/09/10 06:36:22;;;;;;;69.65;52.83;;;;;;;;;;4999034;28;25079;-73
2023/09/10 06:38:48;;;;;;;64.60;50.85;;;;;;;;;;5001957;28;25062;-75
2023/09/10 06:41:17;;;;;;;70.55;53.63;;;;;;;;;;4999975;28;25102;-74
2023/09/10 06:43:43;;;;;;;65.88;51.88;;;;;;;;;;5006480;28;25133;-73
2023/09/10 06:46:10;;;;;;;59.28;49.03;;;;;;;;;;4994675;28;25073;-76
2023/09/10 06:48:36;;;;;;;66.40;51.30;;;;;;;;;;4990845;28;25055;-73
2023/09/10 06:51:02;;;;;;;67.85;52.83;;;;;;;;;;5008115;28;25055;-76
2023/09/10 06:53:28;;;;;;;68.38;52.42;;;;;;;;;;5002520;28;25061;-74
2023/09/10 06:55:55;;;;;;;67.72;50.85;;;;;;;;;;5004970;28;25073;-74
2023/09/10 06:58:21;;;;;;;65.63;51.05;;;;;;;;;;4997087;28;25050;-74
2023/09/10 07:00:47;;;;;;;63.97;49.35;;;;;;;;;;4994770;28;25052;-73
2023/09/10 07:03:13;;;;;;;62.42;48.45;;;;;;;;;;4994515;28;25056;-73
2023/09/10 07:05:40;;;;;;;63.22;48.78;;;;;;;;;;4998173;28;25063;-74
2023/09/10 07:08:06;;;;;;;64.75;49.47;;;;;;;;;;4999121;28;25070;-75
2023/09/10 07:10:33;;;;;;;62.45;47.40;;;;;;;;;;5000612;28;25147;-73
2023/09/10 07:12:59;;;;;;;58.88;47.88;;;;;;;;;;4999921;28;25126;-75
2023/09/10 07:15:25;;;;;;;63.33;48.83;;;;;;;;;;4998256;28;25078;-75
2023/09/10 07:17:51;;;;;;;61.15;46.78;;;;;;;;;;5000213;28;25074;-74
2023/09/10 07:20:17;;;;;;;67.20;47.45;;;;;;;;;;4994972;28;25081;-74
2023/09/10 07:22:43;;;;;;;54.63;44.28;;;;;;;;;;4999978;28;25103;-73
2023/09/10 07:25:09;;;;;;;58.78;46.28;;;;;;;;;;4999698;28;25136;-74
2023/09/10 07:27:35;;;;;;;62.83;45.42;;;;;;;;;;5003775;28;25091;-74
2023/09/10 07:30:02;;;;;;;56.67;45.47;;;;;;;;;;4987695;28;25091;-73
2023/09/10 07:32:28;;;;;;;61.08;45.78;;;;;;;;;;4998397;28;25040;-74
2023/09/10 07:34:54;;;;;;;52.58;40.33;;;;;;;;;;4993841;28;25098;-74
2023/09/10 07:37:20;;;;;;;54.50;43.75;;;;;;;;;;4995429;28;25087;-72
2023/09/10 07:39:46;;;;;;;54.63;42.65;;;;;;;;;;4995213;28;25105;-72
2023/09/10 07:42:12;;;;;;;55.72;44.83;;;;;;;;;;5001043;28;25063;-71
2023/09/10 07:44:38;;;;;;;53.00;41.45;;;;;;;;;;4989833;28;25063;-73
2023/09/10 07:47:04;;;;;;;49.60;39.78;;;;;;;;;;4993900;28;25091;-72
2023/09/10 07:49:30;;;;;;;50.78;40.28;;;;;;;;;;4991495;28;25102;-73
2023/09/10 07:51:56;;;;;;;50.25;39.75;;;;;;;;;;4993197;28;25146;-73
2023/09/10 07:54:22;;;;;;;45.17;38.17;;;;;;;;;;4998682;28;25094;-74
2023/09/10 07:56:48;;;;;;;44.97;36.22;;;;;;;;;;5004550;28;25091;-74
2023/09/10 07:59:14;;;;;;;43.05;33.42;;;;;;;;;;4997110;28;25059;-74
2023/09/10 08:01:40;;;;;;;45.88;35.53;;;;;;;;;;4992659;28;24760;-74
2023/09/10 08:04:07;;;;;;;43.85;35.38;;;;;;;;;;4995343;28;25138;-71
2023/09/10 08:06:33;;;;;;;41.92;35.15;;;;;;;;;;4992639;28;25086;-71
2023/09/10 08:08:59;;;;;;;45.08;35.03;;;;;;;;;;4979784;28;25064;-73
2023/09/10 08:11:25;;;;;;;41.88;33.15;;;;;;;;;;4991977;28;25086;-73
2023/09/10 08:13:51;;;;;;;44.22;34.88;;;;;;;;;;4991300;28;25045;-73
2023/09/10 08:16:17;;;;;;;39.70;32.72;;;;;;;;;;4996960;28;25066;-73
2023/09/10 08:18:45;;;;;;;40.17;31.55;;;;;;;;;;4986590;28;25072;-72
2023/09/10 08:21:11;;;;;;;41.97;30.73;;;;;;;;;;4990137;28;25072;-73
2023/09/10 08:23:37;;;;;;;34.70;29.35;;;;;;;;;;4987502;28;25064;-72
2023/09/10 08:26:03;;;;;;;41.05;29.40;;;;;;;;;;4984943;28;25108;-72
2023/09/10 08:28:29;;;;;;;32.63;27.20;;;;;;;;;;4995086;28;25064;-72
2023/09/10 08:30:55;;;;;;;34.20;28.42;;;;;;;;;;4990563;28;25071;-73
2023/09/10 08:33:21;;;;;;;35.33;27.17;;;;;;;;;;4992403;28;25060;-74
2023/09/10 08:35:48;;;;;;;36.47;28.27;;;;;;;;;;4997310;28;25068;-73
2023/09/10 08:38:14;;;;;;;32.45;25.80;;;;;;;;;;4992326;28;25056;-70
2023/09/10 08:40:58;;;;;;;32.40;24.52;;;;;;;;;;4995670;28;25168;-74
2023/09/10 08:43:31;;;;;;;30.63;24.85;;;;;;;;;;5004562;28;25066;-74
2023/09/10 08:45:57;;;;;;;30.65;25.05;;;;;;;;;;5007493;28;25081;-73
2023/09/10 08:48:24;;;;;;;28.17;21.33;;;;;;;;;;4997490;28;25060;-72
2023/09/10 08:50:50;;;;;;;27.42;21.52;;;;;;;;;;5008185;28;25053;-72
2023/09/10 08:53:17;;;;;;;32.58;21.48;;;;;;;;;;5014714;28;25079;-73
2023/09/10 08:55:44;;;;;;;31.27;21.85;;;;;;;;;;5012318;28;25105;-72
2023/09/10 08:58:12;;;;;;;27.23;22.73;;;;;;;;;;5018579;28;25044;-71
2023/09/10 09:00:39;;;;;;;24.65;20.83;;;;;;;;;;5010451;28;25076;-73
2023/09/10 09:03:05;;;;;;;30.33;20.20;;;;;;;;;;4995231;28;25079;-71
2023/09/10 09:05:32;;;;;;;28.38;20.08;;;;;;;;;;4985356;28;25089;-74
2023/09/10 09:08:00;;;;;;;25.25;19.20;;;;;;;;;;4975252;28;25088;-73
2023/09/10 09:10:27;;;;;;;27.13;20.20;;;;;;;;;;4964124;28;25075;-71
2023/09/10 09:13:00;;;;;;;23.15;17.55;;;;;;;;;;4971858;28;25092;-74
2023/09/10 09:15:26;;;;;;;24.95;19.65;;;;;;;;;;4975117;28;25052;-73
2023/09/10 09:17:52;;;;;;;23.05;19.05;;;;;;;;;;4964711;28;25079;-72
2023/09/10 09:20:19;;;;;;;28.10;18.70;;;;;;;;;;4971314;28;25073;-74
2023/09/10 09:22:50;;;;;;;25.92;19.15;;;;;;;;;;4974978;28;25071;-75
2023/09/10 09:25:16;;;;;;;24.05;17.85;;;;;;;;;;4971883;28;25068;-73
2023/09/10 09:27:43;;;;;;;24.15;18.60;;;;;;;;;;4976876;28;25126;-70
2023/09/10 09:30:11;;;;;;;20.58;16.77;;;;;;;;;;4973291;28;25069;-72
2023/09/10 09:32:37;;;;;;;23.90;17.25;;;;;;;;;;4973483;28;25130;-70
2023/09/10 09:35:04;;;;;;;26.38;16.98;;;;;;;;;;4971510;28;25146;-73
2023/09/10 09:37:33;;;;;;;24.88;18.15;;;;;;;;;;4971492;28;25096;-71
2023/09/10 09:40:03;;;;;;;22.42;18.48;;;;;;;;;;4965475;28;25054;-72
2023/09/10 09:42:29;;;;;;;23.08;17.27;;;;;;;;;;4977477;28;25064;-71
2023/09/10 09:44:57;;;;;;;25.98;16.63;;;;;;;;;;4963381;28;25137;-73
2023/09/10 09:47:23;;;;;;;26.48;16.42;;;;;;;;;;4966303;28;25088;-72
2023/09/10 09:49:49;;;;;;;26.00;16.83;;;;;;;;;;4958537;28;25069;-74
2023/09/10 09:52:17;;;;;;;28.83;17.08;;;;;;;;;;4973248;28;25077;-72
2023/09/10 09:54:43;;;;;;;26.05;17.67;;;;;;;;;;4969670;28;25082;-70
2023/09/10 09:57:11;;;;;;;20.45;15.30;;;;;;;;;;4989781;28;25072;-72
2023/09/10 09:59:37;;;;;;;19.80;15.40;;;;;;;;;;4968536;28;25074;-73
2023/09/10 10:02:03;;;;;;;24.05;15.18;;;;;;;;;;4972482;28;25081;-72
2023/09/10 10:04:32;;;;;;;24.02;15.13;;;;;;;;;;4966985;28;25110;-72
2023/09/10 10:06:58;;;;;;;18.85;14.82;;;;;;;;;;4967264;28;25060;-73
2023/09/10 10:09:33;;;;;;;24.10;14.70;;;;;;;;;;4980283;28;25047;-72
2023/09/10 10:11:59;;;;;;;21.58;13.27;;;;;;;;;;4972594;28;25070;-72
2023/09/10 10:14:26;;;;;;;26.05;15.68;;;;;;;;;;4971059;28;25052;-72
2023/09/10 10:16:52;;;;;;;22.38;13.70;;;;;;;;;;4991055;28;25057;-71
2023/09/10 10:19:19;;;;;;;16.38;11.93;;;;;;;;;;4973080;28;25069;-74
2023/09/10 10:21:45;;;;;;;21.60;12.20;;;;;;;;;;4974376;28;25067;-71
2023/09/10 10:24:15;;;;;;;14.13;11.10;;;;;;;;;;4988353;28;25067;-74
2023/09/10 10:26:43;;;;;;;18.38;11.13;;;;;;;;;;4997769;28;25062;-72
2023/09/10 10:29:10;;;;;;;16.10;10.50;;;;;;;;;;5004527;28;25151;-74
2023/09/10 10:31:37;;;;;;;18.05;10.90;;;;;;;;;;5003229;28;25147;-74
2023/09/10 10:34:07;;;;;;;14.73;10.73;;;;;;;;;;4994584;28;25105;-75
2023/09/10 10:36:40;;;;;;;18.17;11.82;;;;;;;;;;4999663;28;25067;-73
2023/09/10 10:39:10;;;;;;;19.33;11.40;;;;;;;;;;5002597;28;25076;-71
2023/09/10 10:41:40;;;;;;;18.55;10.30;;;;;;;;;;5002925;28;25061;-73
2023/09/10 10:44:13;;;;;;;13.97;11.03;;;;;;;;;;5013399;28;25074;-72
2023/09/10 10:46:43;;;;;;;11.73;7.75;;;;;;;;;;5009311;28;25091;-75
2023/09/10 10:49:10;;;;;;;14.48;8.90;;;;;;;;;;5010977;28;25081;-72
2023/09/10 10:51:38;;;;;;;16.63;7.57;;;;;;;;;;4994852;28;25078;-71
2023/09/10 10:54:04;;;;;;;12.43;6.85;;;;;;;;;;5004941;28;25081;-73
2023/09/10 10:56:31;;;;;;;15.13;7.18;;;;;;;;;;5011789;28;25073;-73
2023/09/10 10:58:57;;;;;;;9.90;7.20;;;;;;;;;;5008856;28;25054;-74
2023/09/10 11:01:24;;;;;;;12.63;6.82;;;;;;;;;;5017228;28;25084;-71
2023/09/10 11:03:51;;;;;;;19.58;7.47;;;;;;;;;;5003380;28;25057;-73
2023/09/10 11:06:17;;;;;;;12.10;6.95;;;;;;;;;;4995236;28;25066;-73
2023/09/10 11:08:48;;;;;;;11.05;6.53;;;;;;;;;;4995880;28;25066;-72
2023/09/10 11:11:33;;;;;;;13.68;6.57;;;;;;;;;;4996567;28;25061;-73
2023/09/10 11:14:08;;;;;;;16.50;6.47;;;;;;;;;;5001537;28;25062;-72
2023/09/10 11:16:34;;;;;;;12.40;7.47;;;;;;;;;;4996867;28;25078;-74
2023/09/10 11:19:01;;;;;;;14.45;6.40;;;;;;;;;;5003413;28;25105;-72
2023/09/10 11:21:46;;;;;;;9.05;6.30;;;;;;;;;;5000472;28;25065;-72
2023/09/10 11:24:15;;;;;;;12.32;6.88;;;;;;;;;;5005777;28;25055;-72
2023/09/10 11:26:41;;;;;;;15.10;6.15;;;;;;;;;;4995418;28;25146;-73
2023/09/10 11:29:06;;;;;;;10.07;5.85;;;;;;;;;;5001999;28;25149;-73
2023/09/10 11:31:38;;;;;;;13.60;7.03;;;;;;;;;;4994475;28;25085;-73
2023/09/10 11:34:18;;;;;;;16.33;7.03;;;;;;;;;;5000766;28;25068;-72
2023/09/10 11:36:47;;;;;;;14.27;7.00;;;;;;;;;;4994683;28;25051;-73
2023/09/10 11:39:17;;;;;;;11.80;6.15;;;;;;;;;;4996334;28;25101;-72
2023/09/10 11:41:44;;;;;;;13.60;6.60;;;;;;;;;;4994819;28;25042;-73
2023/09/10 11:44:10;;;;;;;15.30;7.28;;;;;;;;;;5003106;28;25132;-73
2023/09/10 11:46:37;;;;;;;17.80;6.40;;;;;;;;;;4991610;28;25150;-73
2023/09/10 11:49:03;;;;;;;8.88;5.97;;;;;;;;;;4988770;28;25058;-73
2023/09/10 11:51:30;;;;;;;16.25;6.63;;;;;;;;;;4986213;28;25060;-71
2023/09/10 11:53:57;;;;;;;13.82;6.00;;;;;;;;;;4981978;28;25060;-71
2023/09/10 11:56:23;;;;;;;13.77;6.47;;;;;;;;;;4985426;28;25060;-72
2023/09/10 11:58:49;;;;;;;11.32;6.47;;;;;;;;;;4985821;28;25161;-72
2023/09/10 12:01:15;;;;;;;9.25;5.80;;;;;;;;;;4980429;28;25157;-73
2023/09/10 12:03:41;;;;;;;14.85;6.10;;;;;;;;;;4981901;28;25070;-73
2023/09/10 12:06:08;;;;;;;11.43;5.43;;;;;;;;;;4989361;28;25110;-72
2023/09/10 12:08:33;;;;;;;13.27;6.38;;;;;;;;;;4986475;28;25079;-73
2023/09/10 12:11:03;;;;;;;9.93;6.65;;;;;;;;;;4988442;28;25089;-71
2023/09/10 12:13:29;;;;;;;13.40;6.60;;;;;;;;;;4983678;28;25085;-71
2023/09/10 12:15:55;;;;;;;11.82;5.75;;;;;;;;;;4983974;28;25057;-72
2023/09/10 12:18:22;;;;;;;9.88;6.75;;;;;;;;;;4991120;28;25143;-73
2023/09/10 12:20:49;;;;;;;12.23;5.68;;;;;;;;;;4985634;28;25103;-72
2023/09/10 12:23:15;;;;;;;9.00;5.65;;;;;;;;;;5002764;28;25067;-71
2023/09/10 12:25:43;;;;;;;15.65;5.88;;;;;;;;;;4999205;28;25072;-71
2023/09/10 12:28:09;;;;;;;16.13;6.25;;;;;;;;;;5005591;28;25074;-70
2023/09/10 12:30:36;;;;;;;12.23;5.45;;;;;;;;;;4988496;28;25141;-72
2023/09/10 12:33:02;;;;;;;12.25;5.57;;;;;;;;;;4987505;28;25069;-71
2023/09/10 12:35:29;;;;;;;15.18;6.28;;;;;;;;;;4990268;28;25129;-70
2023/09/10 12:37:55;;;;;;;12.68;6.05;;;;;;;;;;4995998;28;25081;-71
2023/09/10 12:40:24;;;;;;;12.70;5.82;;;;;;;;;;4986248;28;25047;-72
2023/09/10 12:42:51;;;;;;;18.80;5.80;;;;;;;;;;4986709;28;25094;-72
2023/09/10 12:45:17;;;;;;;13.30;5.50;;;;;;;;;;4980387;28;25052;-70
2023/09/10 12:47:44;;;;;;;14.35;5.00;;;;;;;;;;4986038;28;25063;-71
2023/09/10 12:50:11;;;;;;;8.52;4.97;;;;;;;;;;5000807;28;25059;-69
2023/09/10 12:52:37;;;;;;;11.75;5.57;;;;;;;;;;4993190;28;25067;-71
2023/09/10 12:55:04;;;;;;;13.73;5.97;;;;;;;;;;5002717;28;25056;-72
2023/09/10 12:57:33;;;;;;;15.20;5.88;;;;;;;;;;5000029;28;25055;-74
2023/09/10 13:00:00;;;;;;;13.82;5.40;;;;;;;;;;4992257;28;25053;-73
2023/09/10 13:02:30;;;;;;;16.95;6.32;;;;;;;;;;4994566;28;25143;-75
2023/09/10 13:04:57;;;;;;;10.30;5.78;;;;;;;;;;4984744;28;25063;-73
2023/09/10 13:07:23;;;;;;;8.77;5.60;;;;;;;;;;4989084;28;25162;-70
2023/09/10 13:09:49;;;;;;;9.90;5.85;;;;;;;;;;4983090;28;25085;-74
2023/09/10 13:12:15;;;;;;;9.50;5.18;;;;;;;;;;4987494;28;25092;-69
2023/09/10 13:14:41;;;;;;;10.70;5.25;;;;;;;;;;4988247;28;25085;-72
2023/09/10 13:17:07;;;;;;;10.00;5.72;;;;;;;;;;4985833;28;25065;-71
2023/09/10 13:19:33;;;;;;;7.25;5.03;;;;;;;;;;4989321;28;25048;-70
2023/09/10 13:21:59;;;;;;;13.05;5.60;;;;;;;;;;4993140;28;25051;-70
2023/09/10 13:24:25;;;;;;;11.13;5.13;;;;;;;;;;5003177;28;25063;-69
2023/09/10 13:26:51;;;;;;;11.57;5.28;;;;;;;;;;4994276;28;25071;-71
2023/09/10 13:29:17;;;;;;;7.95;5.22;;;;;;;;;;4993632;28;25086;-69
2023/09/10 13:31:43;;;;;;;9.98;5.15;;;;;;;;;;4988174;28;25121;-70
2023/09/10 13:34:09;;;;;;;12.70;6.00;;;;;;;;;;4987877;28;25067;-70
2023/09/10 13:36:37;;;;;;;19.23;5.93;;;;;;;;;;4986276;28;25049;-71
2023/09/10 13:39:03;;;;;;;15.30;5.82;;;;;;;;;;4994713;28;25060;-71
2023/09/10 13:41:29;;;;;;;11.43;5.50;;;;;;;;;;4983491;28;25141;-72
2023/09/10 13:43:57;;;;;;;15.05;5.32;;;;;;;;;;4985982;28;25050;-71
2023/09/10 13:46:23;;;;;;;15.95;5.80;;;;;;;;;;4985962;28;25141;-70
2023/09/10 13:48:49;;;;;;;12.70;5.82;;;;;;;;;;4994210;28;25069;-71
2023/09/10 13:51:15;;;;;;;11.07;5.25;;;;;;;;;;4977271;28;25106;-71
2023/09/10 13:53:43;;;;;;;12.55;5.43;;;;;;;;;;4990878;28;25106;-70
2023/09/10 13:56:09;;;;;;;12.60;5.70;;;;;;;;;;4990334;28;25059;-73
2023/09/10 13:58:35;;;;;;;11.07;6.38;;;;;;;;;;4989430;28;25061;-69
2023/09/10 14:01:03;;;;;;;12.98;6.10;;;;;;;;;;4983382;28;25130;-69
2023/09/10 14:03:30;;;;;;;11.13;5.53;;;;;;;;;;4980877;28;25063;-72
2023/09/10 14:05:56;;;;;;;12.85;5.63;;;;;;;;;;4988480;28;25124;-73
2023/09/10 14:08:22;;;;;;;12.77;6.30;;;;;;;;;;4983272;28;25052;-72
2023/09/10 14:10:48;;;;;;;15.05;6.03;;;;;;;;;;4987637;28;25063;-70
2023/09/10 14:13:14;;;;;;;9.32;5.85;;;;;;;;;;4982925;28;25082;-73
2023/09/10 14:15:40;;;;;;;11.52;5.90;;;;;;;;;;4992476;28;25075;-71
2023/09/10 14:18:06;;;;;;;8.15;5.60;;;;;;;;;;4977596;28;25054;-70
2023/09/10 14:20:32;;;;;;;12.15;6.28;;;;;;;;;;4983769;28;25147;-73